This is the latest recevied weather packets stored in our database for station/object WI5KEY. If no packets are shown the sender has not sent any weather packets the latest 10 day(s).
| Time | Temp. | Humidity | Pressure | Rain* | Wind** | Luminosity | Snow |
|---|---|---|---|---|---|---|---|
| 1788579040 | 30° C | 67% | 1012.8 hPa | 0 mm | - | - | - |
| 1788578141 | 30° C | 67% | 1012.6 hPa | 0 mm | - | - | - |
| 1788577240 | 30° C | 66% | 1012.5 hPa | 0 mm | - | - | - |
| 1788576342 | 30° C | 64% | 1012.4 hPa | 0 mm | - | - | - |
| 1788575438 | 30.56° C | 64% | 1012.3 hPa | 0 mm | - | - | - |
| 1788574542 | 30.56° C | 64% | 1012 hPa | 0 mm | - | - | - |
| 1788573637 | 30.56° C | 64% | 1011.9 hPa | 0 mm | - | - | - |
| 1788572750 | 31.11° C | 64% | 1011.7 hPa | 0 mm | - | - | - |
| 1788571835 | 31.11° C | 63% | 1011.6 hPa | 0 mm | - | - | - |
| 1788570937 | 31.67° C | 62% | 1011.5 hPa | 0 mm | - | - | - |
| 1788570034 | 31.67° C | 61% | 1011.3 hPa | 0 mm | - | - | - |
| 1788569132 | 32.22° C | 60% | 1011.2 hPa | 0 mm | - | - | - |
| 1788568236 | 32.78° C | 58% | 1011 hPa | 0 mm | - | - | - |
| 1788567332 | 33.33° C | 56% | 1010.7 hPa | 0 mm | - | - | - |
| 1788566432 | 33.33° C | 52% | 1010.5 hPa | 0 mm | - | - | - |
| 1788565529 | 33.33° C | 52% | 1010.6 hPa | 0 mm | - | - | - |
| 1788564630 | 33.33° C | 54% | 1010.6 hPa | 0 mm | - | - | - |
| 1788563727 | 33.89° C | 53% | 1010.6 hPa | 0 mm | - | - | - |
| 1788562827 | 33.89° C | 54% | 1010.7 hPa | 0 mm | - | - | - |
| 1788561927 | 34.44° C | 53% | 1010.7 hPa | 0 mm | - | - | - |
| 1788561023 | 33.89° C | 54% | 1010.7 hPa | 0 mm | - | - | - |
| 1788560140 | 33.89° C | 56% | 1010.9 hPa | 0 mm | - | - | - |
| 1788559217 | 33.89° C | 57% | 1011.1 hPa | 0 mm | - | - | - |
| 1788558318 | 33.89° C | 56% | 1011.3 hPa | 0 mm | - | - | - |
| 1788557416 | 33.33° C | 56% | 1011.5 hPa | 0 mm | - | - | - |
* Rain latest hour (hover to see other rain measurements)
** Current wind speed in m/s (hover to see current wind gust speed)